Dades meteomassalio
Diari Summary for Octubre 29, 2017 Units:  Metric    English   Both
« Previous Day
Next Day »
Diari Semanal Mensual Anual Personalitzat
  Maxima: Minima: Mijana:
Temperatura: 19.4 °C 2.2 °C 11.5 °C
Rosada: 8.1 °C -2.2 °C 3.8 °C
Humitat: 80 % 42 % 61 %
Velocitat del vent: 31.5 km/h 0.0 km/h 13.9 km/h
Racha vent: 31.5 km/h - -
Vent:- - SSW
Pressio: 1027.3 hPa 1021.9 hPa -
Pluja: 0.0 mm    
Historical Graphs
 
 
Tabular Data for Octubre 29, 2017
Time Temperature Dew Point Pressure Wind Wind Speed Wind Gust Humidity Rainfall Rate (Hourly) solar Conditions
00:04 10.0 °C 4.2 °C 1027.0 hPa South 13.0 km/h 13.0 km/h 67 % 0.0 mm 0.0 W/m2 CLR
00:09 10.0 °C 4.2 °C 1027.0 hPa South 11.1 km/h 11.1 km/h 67 % 0.0 mm 0.0 W/m2 CLR
00:14 10.0 °C 4.2 °C 1027.0 hPa South 11.1 km/h 11.1 km/h 67 % 0.0 mm 0.0 W/m2 CLR
00:19 10.0 °C 4.2 °C 1027.0 hPa South 9.3 km/h 9.3 km/h 67 % 0.0 mm 0.0 W/m2 CLR
00:24 9.4 °C 3.6 °C 1027.0 hPa SSE 7.4 km/h 7.4 km/h 67 % 0.0 mm 0.0 W/m2 CLR
00:29 9.4 °C 3.6 °C 1027.0 hPa SSE 11.1 km/h 11.1 km/h 67 % 0.0 mm 0.0 W/m2 CLR
00:34 10.0 °C 4.3 °C 1027.0 hPa SSE 11.1 km/h 11.1 km/h 68 % 0.0 mm 0.0 W/m2 CLR
00:39 10.6 °C 4.9 °C 1027.0 hPa South 9.3 km/h 9.3 km/h 68 % 0.0 mm 0.0 W/m2 CLR
00:44 11.1 °C 5.4 °C 1027.0 hPa SSE 5.6 km/h 5.6 km/h 68 % 0.0 mm 0.0 W/m2 CLR
00:49 11.7 °C 6.2 °C 1027.0 hPa South 7.4 km/h 7.4 km/h 69 % 0.0 mm 0.0 W/m2 CLR
00:54 11.7 °C 6.4 °C 1027.0 hPa SE 11.1 km/h 11.1 km/h 70 % 0.0 mm 0.0 W/m2 CLR
00:59 11.7 °C 6.4 °C 1027.0 hPa SSE 11.1 km/h 11.1 km/h 70 % 0.0 mm 0.0 W/m2 CLR
01:04 12.2 °C 6.9 °C 1027.0 hPa SSE 16.7 km/h 16.7 km/h 70 % 0.0 mm 0.0 W/m2 CLR
01:09 11.7 °C 6.4 °C 1027.0 hPa SSE 9.3 km/h 9.3 km/h 70 % 0.0 mm 0.0 W/m2 CLR
01:14 11.7 °C 6.4 °C 1027.3 hPa SE 13.0 km/h 13.0 km/h 70 % 0.0 mm 0.0 W/m2 CLR
01:19 11.7 °C 6.4 °C 1027.3 hPa SSE 11.1 km/h 11.1 km/h 70 % 0.0 mm 0.0 W/m2 CLR
01:24 11.7 °C 6.4 °C 1027.0 hPa SSE 11.3 km/h 11.3 km/h 70 % 0.0 mm 0.0 W/m2 CLR
01:29 11.7 °C 6.4 °C 1027.0 hPa SSE 13.0 km/h 13.0 km/h 70 % 0.0 mm 0.0 W/m2 CLR
01:34 11.1 °C 5.8 °C 1027.0 hPa South 8.0 km/h 8.0 km/h 70 % 0.0 mm 0.0 W/m2 CLR
01:39 10.6 °C 5.1 °C 1027.0 hPa SSW 11.3 km/h 11.3 km/h 69 % 0.0 mm 0.0 W/m2 CLR
01:44 10.6 °C 5.1 °C 1027.0 hPa South 16.7 km/h 16.7 km/h 69 % 0.0 mm 0.0 W/m2 CLR
01:49 10.6 °C 5.1 °C 1027.0 hPa South 11.1 km/h 11.1 km/h 69 % 0.0 mm 0.0 W/m2 CLR
01:54 10.6 °C 5.1 °C 1026.6 hPa SSE 14.5 km/h 14.5 km/h 69 % 0.0 mm 0.0 W/m2 CLR
01:59 10.6 °C 5.1 °C 1027.0 hPa South 8.0 km/h 8.0 km/h 69 % 0.0 mm 0.0 W/m2 CLR
02:04 10.6 °C 5.1 °C 1026.6 hPa South 13.0 km/h 13.0 km/h 69 % 0.0 mm 0.0 W/m2 CLR
02:09 10.6 °C 4.9 °C 1026.6 hPa South 14.8 km/h 14.8 km/h 68 % 0.0 mm 0.0 W/m2 CLR
02:14 10.6 °C 4.9 °C 1027.0 hPa SSE 14.8 km/h 14.8 km/h 68 % 0.0 mm 0.0 W/m2 CLR
02:19 10.6 °C 4.9 °C 1026.6 hPa Calm     68 % 0.0 mm 0.0 W/m2 CLR
02:24 10.0 °C 4.3 °C 1027.0 hPa South 8.0 km/h 8.0 km/h 68 % 0.0 mm 0.0 W/m2 CLR
02:29 9.4 °C 4.1 °C 1027.0 hPa SSE 9.3 km/h 9.3 km/h 69 % 0.0 mm 0.0 W/m2 CLR
02:34 8.9 °C 3.5 °C 1026.6 hPa SSE 9.3 km/h 9.3 km/h 69 % 0.0 mm 0.0 W/m2 CLR
02:39 8.3 °C 3.0 °C 1026.6 hPa South 9.7 km/h 9.7 km/h 69 % 0.0 mm 0.0 W/m2 CLR
02:44 7.8 °C 2.4 °C 1026.6 hPa SSE 9.3 km/h 9.3 km/h 69 % 0.0 mm 0.0 W/m2 CLR
02:49 7.8 °C 2.4 °C 1026.6 hPa SSE 8.0 km/h 8.0 km/h 69 % 0.0 mm 0.0 W/m2 CLR
02:54 7.2 °C 1.9 °C 1026.6 hPa South 5.6 km/h 5.6 km/h 69 % 0.0 mm 0.0 W/m2 CLR
02:59 6.7 °C 1.4 °C 1026.6 hPa SSE 4.8 km/h 4.8 km/h 69 % 0.0 mm 0.0 W/m2 CLR
02:04 6.7 °C 1.6 °C 1026.6 hPa South 9.3 km/h 9.3 km/h 70 % 0.0 mm 0.0 W/m2 CLR
02:09 6.7 °C 1.6 °C 1026.6 hPa SSE 14.8 km/h 14.8 km/h 70 % 0.0 mm 0.0 W/m2 CLR
02:14 6.1 °C 1.1 °C 1026.6 hPa SSE 9.3 km/h 9.3 km/h 70 % 0.0 mm 0.0 W/m2 CLR
02:19 6.1 °C 1.1 °C 1026.6 hPa SSE 5.6 km/h 5.6 km/h 70 % 0.0 mm 0.0 W/m2 CLR
02:24 6.1 °C 1.1 °C 1026.6 hPa SSE 9.7 km/h 9.7 km/h 70 % 0.0 mm 0.0 W/m2 CLR
02:29 5.6 °C 0.5 °C 1026.6 hPa SSE 11.1 km/h 11.1 km/h 70 % 0.0 mm 0.0 W/m2 CLR
02:34 5.6 °C 0.5 °C 1026.6 hPa SSE 8.0 km/h 8.0 km/h 70 % 0.0 mm 0.0 W/m2 CLR
02:39 5.6 °C 0.5 °C 1026.6 hPa SSE 9.3 km/h 9.3 km/h 70 % 0.0 mm 0.0 W/m2 CLR
02:45 5.6 °C 0.5 °C 1026.6 hPa SSE 11.1 km/h 11.1 km/h 70 % 0.0 mm 0.0 W/m2 CLR
02:50 5.6 °C 0.5 °C 1026.6 hPa SSE 9.3 km/h 9.3 km/h 70 % 0.0 mm 0.0 W/m2 CLR
02:55 5.6 °C 0.5 °C 1026.6 hPa South 13.0 km/h 13.0 km/h 70 % 0.0 mm 0.0 W/m2 CLR
03:00 5.6 °C 0.3 °C 1026.6 hPa SSE 14.8 km/h 14.8 km/h 69 % 0.0 mm 0.0 W/m2 CLR
03:05 5.0 °C -0.2 °C 1026.3 hPa South 13.0 km/h 13.0 km/h 69 % 0.0 mm 0.0 W/m2 CLR
03:10 5.0 °C -0.2 °C 1026.3 hPa South 11.1 km/h 11.1 km/h 69 % 0.0 mm 0.0 W/m2 CLR
03:15 5.0 °C -0.2 °C 1026.3 hPa South 14.8 km/h 14.8 km/h 69 % 0.0 mm 0.0 W/m2 CLR
03:20 5.0 °C -0.2 °C 1026.3 hPa SSE 13.0 km/h 13.0 km/h 69 % 0.0 mm 0.0 W/m2 CLR
03:25 5.0 °C -0.2 °C 1026.3 hPa SSE 14.5 km/h 14.5 km/h 69 % 0.0 mm 0.0 W/m2 CLR
03:30 5.0 °C -0.4 °C 1026.3 hPa SSE 9.3 km/h 9.3 km/h 68 % 0.0 mm 0.0 W/m2 CLR
03:35 4.4 °C -0.9 °C 1026.3 hPa SSW 9.3 km/h 9.3 km/h 68 % 0.0 mm 0.0 W/m2 CLR
03:40 4.4 °C -0.9 °C 1026.3 hPa South 11.1 km/h 11.1 km/h 68 % 0.0 mm 0.0 W/m2 CLR
03:45 4.4 °C -0.9 °C 1026.0 hPa SSE 9.3 km/h 9.3 km/h 68 % 0.0 mm 0.0 W/m2 CLR
03:50 4.4 °C -0.9 °C 1026.0 hPa Calm     68 % 0.0 mm 0.0 W/m2 CLR
03:55 4.4 °C -0.8 °C 1026.0 hPa Calm     69 % 0.0 mm 0.0 W/m2 CLR
04:00 4.4 °C -0.8 °C 1026.0 hPa Calm     69 % 0.0 mm 0.0 W/m2 CLR
04:05 4.4 °C -0.8 °C 1026.0 hPa South 7.4 km/h   69 % 0.0 mm 0.0 W/m2 CLR
04:10 4.4 °C -0.8 °C 1026.0 hPa Calm     69 % 0.0 mm 0.0 W/m2 CLR
04:15 3.9 °C -1.1 °C 1026.0 hPa Calm     70 % 0.0 mm 0.0 W/m2 CLR
04:20 3.9 °C -0.7 °C 1026.0 hPa Calm     72 % 0.0 mm 0.0 W/m2 CLR
04:21 3.9 °C -0.7 °C 1026.0 hPa Calm     72 % 0.0 mm 0.0 W/m2 CLR
04:23 3.9 °C -0.5 °C 1026.0 hPa Calm     73 % 0.0 mm 0.0 W/m2 CLR
04:24 3.9 °C -0.5 °C 1026.0 hPa Calm     73 % 0.0 mm 0.0 W/m2 CLR
04:26 3.9 °C -0.5 °C 1026.3 hPa Calm     73 % 0.0 mm 0.0 W/m2 CLR
04:27 3.9 °C -0.5 °C 1026.0 hPa Calm     73 % 0.0 mm 0.0 W/m2 CLR
04:32 3.9 °C -0.3 °C 1026.3 hPa South 3.2 km/h 3.2 km/h 74 % 0.0 mm 0.0 W/m2 CLR
04:37 3.9 °C -0.3 °C 1026.0 hPa South 5.6 km/h 5.6 km/h 74 % 0.0 mm 0.0 W/m2 CLR
04:38 3.9 °C -0.3 °C 1026.0 hPa South 3.7 km/h   74 % 0.0 mm 0.0 W/m2 CLR
04:42 3.3 °C -1.1 °C 1026.3 hPa Calm     73 % 0.0 mm 0.0 W/m2 CLR
04:47 3.3 °C -1.1 °C 1026.3 hPa Calm     73 % 0.0 mm 0.0 W/m2 CLR
04:52 3.3 °C -0.9 °C 1026.0 hPa Calm     74 % 0.0 mm 0.0 W/m2 CLR
04:57 3.3 °C -0.7 °C 1026.0 hPa Calm     75 % 0.0 mm 0.0 W/m2 CLR
05:02 3.3 °C -0.5 °C 1026.0 hPa Calm     76 % 0.0 mm 0.0 W/m2 CLR
05:07 3.3 °C -0.2 °C 1026.0 hPa SSE 7.4 km/h 7.4 km/h 78 % 0.0 mm 0.0 W/m2 CLR
05:12 3.3 °C -0.2 °C 1026.0 hPa SSE 8.0 km/h 8.0 km/h 78 % 0.0 mm 0.0 W/m2 CLR
05:17 2.8 °C -0.5 °C 1026.0 hPa South 9.3 km/h 9.3 km/h 79 % 0.0 mm 0.0 W/m2 CLR
05:22 2.8 °C -1.1 °C 1026.3 hPa Calm     76 % 0.0 mm 0.0 W/m2 CLR
05:27 2.8 °C -0.8 °C 1026.3 hPa Calm     77 % 0.0 mm 0.0 W/m2 CLR
05:32 2.8 °C -0.7 °C 1026.3 hPa South 3.7 km/h 3.7 km/h 78 % 0.0 mm 0.0 W/m2 CLR
05:37 2.8 °C -0.5 °C 1026.3 hPa SSE 11.3 km/h 11.3 km/h 79 % 0.0 mm 0.0 W/m2 CLR
05:42 2.8 °C -0.5 °C 1026.3 hPa SSE 11.1 km/h 11.1 km/h 79 % 0.0 mm 0.0 W/m2 CLR
05:47 2.8 °C -0.5 °C 1026.3 hPa SSE 9.3 km/h 9.3 km/h 79 % 0.0 mm 0.0 W/m2 CLR
05:52 2.8 °C -0.3 °C 1026.3 hPa South 7.4 km/h 7.4 km/h 80 % 0.0 mm 0.0 W/m2 CLR
05:57 2.8 °C -0.5 °C 1026.3 hPa Calm     79 % 0.0 mm 0.0 W/m2 CLR
06:02 2.8 °C -0.7 °C 1026.3 hPa Calm     78 % 0.0 mm 0.0 W/m2 CLR
06:07 2.8 °C -0.7 °C 1026.3 hPa Calm     78 % 0.0 mm 0.0 W/m2 CLR
06:12 2.8 °C -0.7 °C 1026.3 hPa Calm     78 % 0.0 mm 0.0 W/m2 CLR
06:17 2.8 °C -0.7 °C 1026.3 hPa Calm     78 % 0.0 mm 0.0 W/m2 CLR
06:22 2.8 °C -0.7 °C 1026.3 hPa Calm     78 % 0.0 mm 0.0 W/m2 CLR
06:27 2.2 °C -1.1 °C 1026.3 hPa Calm     79 % 0.0 mm 0.0 W/m2 CLR
06:32 2.2 °C -1.1 °C 1026.3 hPa Calm     79 % 0.0 mm 0.0 W/m2 CLR
06:37 2.2 °C -1.1 °C 1026.3 hPa Calm     79 % 0.0 mm 0.0 W/m2 CLR
06:42 2.2 °C -1.1 °C 1026.3 hPa Calm     79 % 0.0 mm 0.0 W/m2 CLR
06:47 2.2 °C -1.1 °C 1026.3 hPa Calm     79 % 0.0 mm 0.0 W/m2 CLR
06:52 2.2 °C -1.1 °C 1026.3 hPa Calm     79 % 0.0 mm 0.0 W/m2 CLR
06:57 2.2 °C -1.1 °C 1026.3 hPa Calm     79 % 0.0 mm 0.0 W/m2 CLR
07:02 2.2 °C -1.1 °C 1026.3 hPa Calm     79 % 0.0 mm 0.0 W/m2 CLR
07:07 2.2 °C -1.1 °C 1026.3 hPa Calm     79 % 0.0 mm 0.0 W/m2 CLR
07:12 2.2 °C -1.1 °C 1026.3 hPa Calm     79 % 0.0 mm 0.0 W/m2 CLR
07:17 2.2 °C -1.2 °C 1026.6 hPa Calm     78 % 0.0 mm 0.0 W/m2 OVC
07:22 2.2 °C -1.2 °C 1026.6 hPa Calm     78 % 0.0 mm 0.0 W/m2 OVC
07:27 2.2 °C -1.2 °C 1026.6 hPa Calm     78 % 0.0 mm 5.0 W/m2 OVC
07:32 2.2 °C -1.4 °C 1026.6 hPa Calm     77 % 0.0 mm 7.0 W/m2 OVC
07:37 2.2 °C -1.4 °C 1026.6 hPa Calm     77 % 0.0 mm 9.0 W/m2 OVC
07:42 2.2 °C -1.4 °C 1026.6 hPa Calm     77 % 0.0 mm 12.0 W/m2 OVC
07:52 2.2 °C -1.8 °C 1026.6 hPa Calm     75 % 0.0 mm 16.0 W/m2 OVC
07:57 2.2 °C -1.9 °C 1026.6 hPa Calm     74 % 0.0 mm 23.0 W/m2 OVC
08:02 2.2 °C -1.9 °C 1027.0 hPa Calm     74 % 0.0 mm 33.0 W/m2 OVC
08:07 2.2 °C -2.1 °C 1027.0 hPa Calm     73 % 0.0 mm 40.0 W/m2 OVC
08:12 2.2 °C -2.1 °C 1027.0 hPa Calm     73 % 0.0 mm 56.0 W/m2 OVC
08:17 2.8 °C -1.9 °C 1027.0 hPa Calm     71 % 0.0 mm 69.0 W/m2 OVC
08:22 2.8 °C -1.9 °C 1027.0 hPa Calm     71 % 0.0 mm 83.0 W/m2 OVC
08:27 2.8 °C -2.2 °C 1027.0 hPa Calm     70 % 0.0 mm 95.0 W/m2 CLR
08:32 3.3 °C -1.8 °C 1027.0 hPa Calm     69 % 0.0 mm 91.0 W/m2 SCT
08:37 3.3 °C -2.0 °C 1027.0 hPa Calm     68 % 0.0 mm 104.0 W/m2 CLR
08:42 3.9 °C -1.9 °C 1027.0 hPa Calm     66 % 0.0 mm 116.0 W/m2 CLR
08:47 3.9 °C -2.1 °C 1027.0 hPa Calm     65 % 0.0 mm 151.0 W/m2 CLR
08:52 4.4 °C -1.8 °C 1027.0 hPa Calm     64 % 0.0 mm 181.0 W/m2 CLR
08:57 4.4 °C -2.0 °C 1027.0 hPa Calm     63 % 0.0 mm 188.0 W/m2 CLR
09:02 5.0 °C -1.9 °C 1027.0 hPa SSE 6.4 km/h 6.4 km/h 61 % 0.0 mm 202.0 W/m2 CLR
09:07 5.6 °C -1.8 °C 1026.6 hPa South 14.8 km/h 14.8 km/h 59 % 0.0 mm 234.0 W/m2 CLR
09:12 6.7 °C -1.3 °C 1027.0 hPa South 16.7 km/h 16.7 km/h 57 % 0.0 mm 250.0 W/m2 CLR
09:17 8.9 °C 0.6 °C 1027.0 hPa South 18.5 km/h 18.5 km/h 56 % 0.0 mm 262.0 W/m2 CLR
09:22 10.6 °C 1.9 °C 1027.0 hPa SSW 18.5 km/h 18.5 km/h 55 % 0.0 mm 276.0 W/m2 CLR
09:27 11.7 °C 2.7 °C 1027.0 hPa South 20.4 km/h 20.4 km/h 54 % 0.0 mm 288.0 W/m2 CLR
09:32 12.2 °C 3.2 °C 1027.0 hPa South 16.7 km/h 16.7 km/h 54 % 0.0 mm 304.0 W/m2 CLR
09:37 12.2 °C 2.9 °C 1027.0 hPa SSW 16.1 km/h 16.1 km/h 53 % 0.0 mm 315.0 W/m2 CLR
09:42 12.8 °C 3.4 °C 1027.0 hPa South 14.8 km/h 14.8 km/h 53 % 0.0 mm 329.0 W/m2 CLR
09:47 12.8 °C 3.2 °C 1027.0 hPa SSE 17.7 km/h 17.7 km/h 52 % 0.0 mm 341.0 W/m2 CLR
09:52 12.8 °C 2.9 °C 1027.0 hPa South 25.9 km/h 25.9 km/h 51 % 0.0 mm 355.0 W/m2 CLR
09:57 13.3 °C 3.9 °C 1027.0 hPa SSW 20.4 km/h 20.4 km/h 53 % 0.0 mm 366.0 W/m2 CLR
10:02 13.3 °C 3.9 °C 1027.0 hPa SSW 18.5 km/h 18.5 km/h 53 % 0.0 mm 378.0 W/m2 CLR
10:07 13.3 °C 3.9 °C 1027.0 hPa SW 31.5 km/h 31.5 km/h 53 % 0.0 mm 390.0 W/m2 CLR
10:12 13.9 °C 4.4 °C 1026.6 hPa SSW 22.2 km/h 22.2 km/h 53 % 0.0 mm 403.0 W/m2 CLR
10:17 13.9 °C 4.2 °C 1026.6 hPa SSW 25.7 km/h 25.7 km/h 52 % 0.0 mm 413.0 W/m2 CLR
10:22 13.9 °C 4.2 °C 1026.6 hPa SSW 18.5 km/h 18.5 km/h 52 % 0.0 mm 424.0 W/m2 CLR
10:27 13.9 °C 4.4 °C 1026.6 hPa South 27.8 km/h 27.8 km/h 53 % 0.0 mm 434.0 W/m2 CLR
10:33 13.9 °C 4.4 °C 1026.6 hPa SSW 20.4 km/h 20.4 km/h 53 % 0.0 mm 443.0 W/m2 CLR
10:38 13.9 °C 4.4 °C 1026.6 hPa SW 18.5 km/h 19.0 km/h 53 % 0.0 mm 455.0 W/m2 CLR
10:43 14.4 °C 5.0 °C 1026.6 hPa SW 18.5 km/h 18.5 km/h 53 % 0.0 mm 462.0 W/m2 CLR
10:48 14.4 °C 5.0 °C 1026.6 hPa SSW 25.9 km/h 25.9 km/h 53 % 0.0 mm 471.0 W/m2 CLR
10:53 14.4 °C 5.0 °C 1026.6 hPa SW 22.2 km/h 22.2 km/h 53 % 0.0 mm 480.0 W/m2 CLR
10:58 15.0 °C 5.2 °C 1026.6 hPa WSW 20.9 km/h 20.9 km/h 52 % 0.0 mm 489.0 W/m2 CLR
11:03 15.0 °C 5.2 °C 1026.6 hPa SW 25.9 km/h 25.9 km/h 52 % 0.0 mm 496.0 W/m2 CLR
11:08 15.0 °C 5.2 °C 1026.6 hPa WSW 27.8 km/h 27.8 km/h 52 % 0.0 mm 504.0 W/m2 CLR
11:13 15.0 °C 5.2 °C 1026.6 hPa SW 25.9 km/h 25.9 km/h 52 % 0.0 mm 513.0 W/m2 CLR
11:18 15.6 °C 5.7 °C 1026.3 hPa SW 25.9 km/h 25.9 km/h 52 % 0.0 mm 520.0 W/m2 CLR
11:23 15.6 °C 5.4 °C 1026.3 hPa SW 24.1 km/h 24.1 km/h 51 % 0.0 mm 527.0 W/m2 CLR
11:28 16.1 °C 5.9 °C 1026.3 hPa SW 20.4 km/h 20.4 km/h 51 % 0.0 mm 534.0 W/m2 CLR
11:33 16.1 °C 5.7 °C 1026.3 hPa WSW 24.1 km/h 24.1 km/h 50 % 0.0 mm 538.0 W/m2 CLR
11:38 16.1 °C 5.7 °C 1026.3 hPa SSW 22.2 km/h 22.2 km/h 50 % 0.0 mm 543.0 W/m2 CLR
11:43 16.1 °C 5.7 °C 1026.0 hPa SW 20.4 km/h 20.4 km/h 50 % 0.0 mm 550.0 W/m2 CLR
11:48 16.1 °C 5.4 °C 1026.0 hPa SSW 20.4 km/h 20.4 km/h 49 % 0.0 mm 554.0 W/m2 CLR
11:53 16.7 °C 5.9 °C 1026.0 hPa SW 24.1 km/h 24.1 km/h 49 % 0.0 mm 559.0 W/m2 CLR
11:58 16.7 °C 6.2 °C 1026.0 hPa SW 18.5 km/h 18.5 km/h 50 % 0.0 mm 561.0 W/m2 CLR
12:03 16.7 °C 6.2 °C 1025.6 hPa SSW 16.7 km/h 16.7 km/h 50 % 0.0 mm 566.0 W/m2 CLR
12:08 16.7 °C 5.9 °C 1025.6 hPa SW 20.4 km/h 20.4 km/h 49 % 0.0 mm 570.0 W/m2 CLR
12:13 16.7 °C 5.9 °C 1025.6 hPa WSW 27.8 km/h 27.8 km/h 49 % 0.0 mm 571.0 W/m2 CLR
12:18 17.2 °C 6.4 °C 1025.3 hPa SSW 19.3 km/h 21.4 km/h 49 % 0.0 mm 573.0 W/m2 CLR
12:23 17.2 °C 6.4 °C 1025.3 hPa WSW 25.9 km/h 25.9 km/h 49 % 0.0 mm 577.0 W/m2 CLR
12:28 16.7 °C 5.9 °C 1025.3 hPa SW 27.8 km/h 27.8 km/h 49 % 0.0 mm 578.0 W/m2 CLR
12:33 17.2 °C 6.7 °C 1024.9 hPa SW 24.1 km/h 24.1 km/h 50 % 0.0 mm 580.0 W/m2 CLR
12:39 17.8 °C 6.9 °C 1024.9 hPa WSW 24.1 km/h 24.1 km/h 49 % 0.0 mm 580.0 W/m2 CLR
12:44 17.8 °C 6.9 °C 1024.9 hPa SSW 18.5 km/h 18.5 km/h 49 % 0.0 mm 580.0 W/m2 CLR
12:49 18.3 °C 7.1 °C 1024.9 hPa SSW 24.1 km/h 24.1 km/h 48 % 0.0 mm 582.0 W/m2 CLR
12:54 17.8 °C 6.3 °C 1024.9 hPa SW 25.9 km/h 25.9 km/h 47 % 0.0 mm 578.0 W/m2 CLR
12:59 17.8 °C 6.6 °C 1024.6 hPa WSW 20.9 km/h 20.9 km/h 48 % 0.0 mm 577.0 W/m2 CLR
13:04 17.8 °C 6.6 °C 1024.6 hPa WSW 20.4 km/h 20.4 km/h 48 % 0.0 mm 577.0 W/m2 CLR
13:09 18.3 °C 6.8 °C 1024.6 hPa SW 20.9 km/h 20.9 km/h 47 % 0.0 mm 573.0 W/m2 CLR
13:14 17.8 °C 6.3 °C 1024.3 hPa SSW 22.2 km/h 22.2 km/h 47 % 0.0 mm 573.0 W/m2 CLR
13:19 18.3 °C 6.8 °C 1024.3 hPa SW 22.2 km/h 22.2 km/h 47 % 0.0 mm 570.0 W/m2 CLR
13:24 18.3 °C 6.8 °C 1024.3 hPa WSW 22.2 km/h 22.2 km/h 47 % 0.0 mm 568.0 W/m2 CLR
13:29 18.3 °C 6.5 °C 1024.3 hPa SW 25.9 km/h 25.9 km/h 46 % 0.0 mm 564.0 W/m2 CLR
13:34 18.9 °C 7.0 °C 1024.3 hPa West 20.4 km/h 20.4 km/h 46 % 0.0 mm 559.0 W/m2 CLR
13:39 18.9 °C 6.7 °C 1023.9 hPa SW 24.1 km/h 24.1 km/h 45 % 0.0 mm 557.0 W/m2 CLR
13:44 18.9 °C 6.7 °C 1023.9 hPa WSW 25.9 km/h 25.9 km/h 45 % 0.0 mm 552.0 W/m2 CLR
13:49 18.9 °C 6.7 °C 1023.9 hPa WSW 27.8 km/h 27.8 km/h 45 % 0.0 mm 545.0 W/m2 CLR
13:54 18.9 °C 6.4 °C 1023.9 hPa SW 18.5 km/h 18.5 km/h 44 % 0.0 mm 541.0 W/m2 CLR
13:59 18.9 °C 6.4 °C 1023.6 hPa West 27.8 km/h 27.8 km/h 44 % 0.0 mm 536.0 W/m2 CLR
14:04 19.4 °C 6.9 °C 1023.6 hPa WSW 19.3 km/h 19.3 km/h 44 % 0.0 mm 531.0 W/m2 CLR
14:09 18.9 °C 6.4 °C 1023.6 hPa SW 11.1 km/h 11.1 km/h 44 % 0.0 mm 526.0 W/m2 CLR
14:14 18.9 °C 6.4 °C 1023.6 hPa SW 24.1 km/h 24.1 km/h 44 % 0.0 mm 517.0 W/m2 CLR
14:19 19.4 °C 6.9 °C 1023.2 hPa SW 14.8 km/h 14.8 km/h 44 % 0.0 mm 510.0 W/m2 CLR
14:24 19.4 °C 6.9 °C 1023.2 hPa SW 25.9 km/h 25.9 km/h 44 % 0.0 mm 501.0 W/m2 CLR
14:29 19.4 °C 6.6 °C 1023.2 hPa WSW 24.1 km/h 24.1 km/h 43 % 0.0 mm 494.0 W/m2 CLR
14:34 19.4 °C 6.9 °C 1023.2 hPa SW 25.9 km/h 25.9 km/h 44 % 0.0 mm 485.0 W/m2 CLR
14:39 19.4 °C 6.6 °C 1023.2 hPa SW 24.1 km/h 24.1 km/h 43 % 0.0 mm 476.0 W/m2 CLR
14:44 19.4 °C 6.6 °C 1022.9 hPa WSW 25.9 km/h 25.9 km/h 43 % 0.0 mm 468.0 W/m2 CLR
14:49 19.4 °C 6.6 °C 1022.9 hPa WSW 20.4 km/h 20.4 km/h 43 % 0.0 mm 459.0 W/m2 CLR
14:54 19.4 °C 6.2 °C 1022.9 hPa SSW 18.5 km/h 18.5 km/h 42 % 0.0 mm 450.0 W/m2 CLR
14:59 19.4 °C 6.2 °C 1022.9 hPa SW 19.3 km/h 19.3 km/h 42 % 0.0 mm 438.0 W/m2 CLR
15:04 19.4 °C 6.2 °C 1022.9 hPa WSW 18.5 km/h 18.5 km/h 42 % 0.0 mm 427.0 W/m2 CLR
15:09 19.4 °C 6.2 °C 1022.9 hPa SW 16.7 km/h 16.7 km/h 42 % 0.0 mm 415.0 W/m2 CLR
15:14 19.4 °C 6.2 °C 1022.9 hPa West 16.7 km/h 16.7 km/h 42 % 0.0 mm 406.0 W/m2 CLR
15:19 19.4 °C 6.2 °C 1022.9 hPa WSW 27.8 km/h 27.8 km/h 42 % 0.0 mm 396.0 W/m2 CLR
15:24 19.4 °C 6.2 °C 1022.9 hPa West 18.5 km/h 18.5 km/h 42 % 0.0 mm 381.0 W/m2 CLR
15:29 19.4 °C 6.2 °C 1022.6 hPa WSW 25.9 km/h 25.9 km/h 42 % 0.0 mm 371.0 W/m2 CLR
15:34 19.4 °C 6.2 °C 1022.6 hPa WSW 22.2 km/h 22.2 km/h 42 % 0.0 mm 359.0 W/m2 CLR
15:39 19.4 °C 6.2 °C 1022.6 hPa SW 19.3 km/h 19.3 km/h 42 % 0.0 mm 346.0 W/m2 CLR
15:44 19.4 °C 6.2 °C 1022.6 hPa West 18.5 km/h 18.5 km/h 42 % 0.0 mm 332.0 W/m2 CLR
15:49 19.4 °C 6.2 °C 1022.6 hPa WSW 25.7 km/h 25.7 km/h 42 % 0.0 mm 322.0 W/m2 CLR
15:54 19.4 °C 6.2 °C 1022.6 hPa West 24.1 km/h 24.1 km/h 42 % 0.0 mm 309.0 W/m2 CLR
15:59 19.4 °C 6.2 °C 1022.6 hPa WSW 24.1 km/h 24.1 km/h 42 % 0.0 mm 297.0 W/m2 CLR
16:04 19.4 °C 6.2 °C 1022.6 hPa WSW 27.8 km/h 27.8 km/h 42 % 0.0 mm 281.0 W/m2 CLR
16:09 19.4 °C 6.2 °C 1022.6 hPa WSW 20.4 km/h 20.4 km/h 42 % 0.0 mm 267.0 W/m2 CLR
16:14 19.4 °C 6.2 °C 1022.2 hPa SSW 19.3 km/h 19.3 km/h 42 % 0.0 mm 253.0 W/m2 CLR
16:19 19.4 °C 6.2 °C 1022.2 hPa SW 18.5 km/h 18.5 km/h 42 % 0.0 mm 237.0 W/m2 CLR
16:24 18.9 °C 5.7 °C 1022.2 hPa WSW 24.1 km/h 24.1 km/h 42 % 0.0 mm 220.0 W/m2 CLR
16:29 18.9 °C 5.7 °C 1022.2 hPa WSW 16.7 km/h 16.7 km/h 42 % 0.0 mm 204.0 W/m2 CLR
16:34 18.9 °C 5.7 °C 1022.2 hPa SW 18.5 km/h 18.5 km/h 42 % 0.0 mm 188.0 W/m2 CLR
16:39 18.9 °C 5.7 °C 1022.2 hPa SW 22.2 km/h 22.2 km/h 42 % 0.0 mm 172.0 W/m2 CLR
16:44 18.9 °C 5.7 °C 1022.2 hPa SSW 16.7 km/h 16.7 km/h 42 % 0.0 mm 155.0 W/m2 CLR
16:49 18.3 °C 5.2 °C 1021.9 hPa WSW 22.2 km/h 22.2 km/h 42 % 0.0 mm 135.0 W/m2 CLR
16:54 18.3 °C 5.2 °C 1021.9 hPa SSW 22.5 km/h 22.5 km/h 42 % 0.0 mm 121.0 W/m2 CLR
16:59 18.3 °C 5.5 °C 1022.2 hPa SW 25.9 km/h 25.9 km/h 43 % 0.0 mm 105.0 W/m2 CLR
17:04 18.3 °C 5.5 °C 1021.9 hPa SW 24.1 km/h 24.1 km/h 43 % 0.0 mm 91.0 W/m2 CLR
17:09 18.3 °C 5.5 °C 1021.9 hPa SW 22.2 km/h 22.2 km/h 43 % 0.0 mm 67.0 W/m2 SCT
17:14 18.3 °C 5.5 °C 1021.9 hPa SW 29.6 km/h 29.6 km/h 43 % 0.0 mm 54.0 W/m2 SCT
17:19 18.3 °C 5.5 °C 1021.9 hPa WSW 24.1 km/h 24.1 km/h 43 % 0.0 mm 44.0 W/m2 SCT
17:24 17.8 °C 5.0 °C 1021.9 hPa SW 20.4 km/h 20.4 km/h 43 % 0.0 mm 35.0 W/m2 BKN
17:29 17.8 °C 5.0 °C 1021.9 hPa SSW 20.4 km/h 20.4 km/h 43 % 0.0 mm 28.0 W/m2 BKN
17:34 17.8 °C 5.3 °C 1021.9 hPa SW 22.2 km/h 22.2 km/h 44 % 0.0 mm 19.0 W/m2 BKN
17:39 17.8 °C 5.3 °C 1021.9 hPa WSW 20.4 km/h 20.4 km/h 44 % 0.0 mm 14.0 W/m2 BKN
17:40 17.8 °C 5.3 °C 1021.9 hPa WSW 20.4 km/h 20.4 km/h 44 % 0.0 mm 14.0 W/m2 BKN
17:45 17.2 °C 5.2 °C 1021.9 hPa SW 14.8 km/h 14.8 km/h 45 % 0.0 mm 12.0 W/m2 BKN
17:50 17.2 °C 5.2 °C 1021.9 hPa SSW 14.5 km/h 14.5 km/h 45 % 0.0 mm 9.0 W/m2 BKN
17:55 16.7 °C 4.7 °C 1021.9 hPa SW 11.3 km/h 12.7 km/h 45 % 0.0 mm 7.0 W/m2 BKN
18:00 16.1 °C 4.5 °C 1021.9 hPa WSW 18.5 km/h 18.5 km/h 46 % 0.0 mm 5.0 W/m2 OVC
18:05 16.1 °C 4.8 °C 1022.2 hPa SW 14.8 km/h 14.8 km/h 47 % 0.0 mm 0.0 W/m2 CLR
18:10 16.1 °C 4.8 °C 1022.2 hPa SSW 11.1 km/h 11.1 km/h 47 % 0.0 mm 0.0 W/m2 CLR
18:15 16.1 °C 4.8 °C 1022.2 hPa SSW 13.0 km/h 13.0 km/h 47 % 0.0 mm 0.0 W/m2 CLR
18:20 15.6 °C 4.3 °C 1022.2 hPa Calm     47 % 0.0 mm 0.0 W/m2 CLR
18:25 15.0 °C 4.1 °C 1022.2 hPa Calm     48 % 0.0 mm 0.0 W/m2 CLR
18:30 14.4 °C 3.6 °C 1022.2 hPa Calm     48 % 0.0 mm 0.0 W/m2 CLR
18:35 13.9 °C 3.1 °C 1022.2 hPa South 3.7 km/h 3.7 km/h 48 % 0.0 mm 0.0 W/m2 CLR
18:40 13.3 °C 2.8 °C 1022.6 hPa Calm     49 % 0.0 mm 0.0 W/m2 CLR
18:45 12.8 °C 2.3 °C 1022.6 hPa SSW 9.7 km/h 9.7 km/h 49 % 0.0 mm 0.0 W/m2 CLR
18:50 12.8 °C 2.6 °C 1022.6 hPa SSW 9.7 km/h 9.7 km/h 50 % 0.0 mm 0.0 W/m2 CLR
18:55 13.3 °C 3.1 °C 1022.6 hPa SSW 14.8 km/h 14.8 km/h 50 % 0.0 mm 0.0 W/m2 CLR
19:00 13.3 °C 3.4 °C 1022.6 hPa SSW 13.0 km/h 13.0 km/h 51 % 0.0 mm 0.0 W/m2 CLR
19:05 13.9 °C 3.9 °C 1022.6 hPa SSW 13.0 km/h 13.0 km/h 51 % 0.0 mm 0.0 W/m2 CLR
19:10 14.4 °C 4.4 °C 1022.6 hPa SSW 18.5 km/h 18.5 km/h 51 % 0.0 mm 0.0 W/m2 CLR
19:15 14.4 °C 4.7 °C 1022.6 hPa SSW 16.7 km/h 16.7 km/h 52 % 0.0 mm 0.0 W/m2 CLR
19:20 15.0 °C 5.2 °C 1022.6 hPa SSW 13.0 km/h 13.0 km/h 52 % 0.0 mm 0.0 W/m2 CLR
19:25 14.4 °C 5.0 °C 1022.6 hPa SSW 16.7 km/h 16.7 km/h 53 % 0.0 mm 0.0 W/m2 CLR
19:30 15.0 °C 6.0 °C 1022.6 hPa SW 22.2 km/h 22.2 km/h 55 % 0.0 mm 0.0 W/m2 CLR
19:35 15.0 °C 6.3 °C 1022.9 hPa SW 20.4 km/h 20.4 km/h 56 % 0.0 mm 0.0 W/m2 CLR
19:40 15.0 °C 6.3 °C 1022.9 hPa SW 13.0 km/h 13.0 km/h 56 % 0.0 mm 0.0 W/m2 CLR
19:45 14.4 °C 6.3 °C 1022.9 hPa SW 11.1 km/h 11.1 km/h 58 % 0.0 mm 0.0 W/m2 CLR
19:50 14.4 °C 6.3 °C 1022.9 hPa South 16.7 km/h 16.7 km/h 58 % 0.0 mm 0.0 W/m2 CLR
19:55 14.4 °C 6.5 °C 1022.9 hPa SSW 18.5 km/h 18.5 km/h 59 % 0.0 mm 0.0 W/m2 CLR
20:00 14.4 °C 6.8 °C 1022.9 hPa SSW 22.2 km/h 22.2 km/h 60 % 0.0 mm 0.0 W/m2 CLR
20:05 15.0 °C 7.6 °C 1022.9 hPa SSW 29.0 km/h 29.0 km/h 61 % 0.0 mm 0.0 W/m2 CLR
20:10 14.4 °C 7.2 °C 1023.2 hPa SW 25.9 km/h 25.9 km/h 62 % 0.0 mm 0.0 W/m2 CLR
20:15 14.4 °C 7.2 °C 1023.2 hPa SW 20.4 km/h 20.4 km/h 62 % 0.0 mm 0.0 W/m2 CLR
20:16 14.4 °C 7.2 °C 1023.2 hPa SW 20.4 km/h 20.4 km/h 62 % 0.0 mm 0.0 W/m2 CLR
20:21 14.4 °C 7.5 °C 1023.2 hPa SSW 18.5 km/h 18.5 km/h 63 % 0.0 mm 0.0 W/m2 CLR
20:26 13.9 °C 6.9 °C 1023.2 hPa SSW 19.3 km/h 19.3 km/h 63 % 0.0 mm 0.0 W/m2 CLR
20:31 13.9 °C 6.9 °C 1023.2 hPa SW 18.5 km/h 18.5 km/h 63 % 0.0 mm 0.0 W/m2 CLR
20:36 13.9 °C 7.2 °C 1023.2 hPa South 20.4 km/h 20.4 km/h 64 % 0.0 mm 0.0 W/m2 CLR
20:41 13.9 °C 7.4 °C 1023.2 hPa SSW 17.7 km/h 17.7 km/h 65 % 0.0 mm 0.0 W/m2 CLR
20:46 13.9 °C 7.4 °C 1023.2 hPa South 20.4 km/h 20.4 km/h 65 % 0.0 mm 0.0 W/m2 CLR
20:51 13.9 °C 7.4 °C 1023.2 hPa South 22.2 km/h 22.2 km/h 65 % 0.0 mm 0.0 W/m2 CLR
20:56 13.9 °C 7.6 °C 1023.2 hPa SSW 31.5 km/h 31.5 km/h 66 % 0.0 mm 0.0 W/m2 CLR
21:01 13.9 °C 7.6 °C 1023.2 hPa SSW 25.9 km/h 25.9 km/h 66 % 0.0 mm 0.0 W/m2 CLR
21:06 13.9 °C 7.6 °C 1023.2 hPa SSW 25.9 km/h 25.9 km/h 66 % 0.0 mm 0.0 W/m2 CLR
21:11 13.9 °C 7.8 °C 1023.2 hPa South 29.6 km/h 29.6 km/h 67 % 0.0 mm 0.0 W/m2 CLR
21:16 13.3 °C 7.3 °C 1023.2 hPa SSW 20.4 km/h 20.4 km/h 67 % 0.0 mm 0.0 W/m2 CLR
21:21 13.3 °C 7.3 °C 1023.2 hPa South 24.1 km/h 24.1 km/h 67 % 0.0 mm 0.0 W/m2 CLR
21:26 13.3 °C 7.3 °C 1023.2 hPa South 25.7 km/h 25.7 km/h 67 % 0.0 mm 0.0 W/m2 CLR
21:31 13.3 °C 7.6 °C 1023.2 hPa SSW 22.2 km/h 22.2 km/h 68 % 0.0 mm 0.0 W/m2 CLR
21:36 13.3 °C 7.6 °C 1023.2 hPa South 18.5 km/h 19.0 km/h 68 % 0.0 mm 0.0 W/m2 CLR
21:41 13.3 °C 7.6 °C 1023.2 hPa SSW 22.2 km/h 22.2 km/h 68 % 0.0 mm 0.0 W/m2 CLR
21:46 13.3 °C 7.8 °C 1023.2 hPa South 22.5 km/h 22.5 km/h 69 % 0.0 mm 0.0 W/m2 CLR
21:51 13.3 °C 7.8 °C 1023.2 hPa South 22.2 km/h 22.2 km/h 69 % 0.0 mm 0.0 W/m2 CLR
21:56 13.3 °C 7.8 °C 1023.2 hPa SSW 18.5 km/h 18.5 km/h 69 % 0.0 mm 0.0 W/m2 CLR
22:01 13.3 °C 8.0 °C 1023.2 hPa SSE 11.1 km/h 11.1 km/h 70 % 0.0 mm 0.0 W/m2 CLR
22:06 13.3 °C 8.0 °C 1023.2 hPa SSW 18.5 km/h 18.5 km/h 70 % 0.0 mm 0.0 W/m2 CLR
22:11 13.3 °C 8.0 °C 1023.2 hPa South 14.8 km/h 14.8 km/h 70 % 0.0 mm 0.0 W/m2 CLR
22:16 12.8 °C 7.4 °C 1023.2 hPa South 18.5 km/h 18.5 km/h 70 % 0.0 mm 0.0 W/m2 CLR
22:21 12.8 °C 7.4 °C 1023.2 hPa SSW 18.5 km/h 18.5 km/h 70 % 0.0 mm 0.0 W/m2 CLR
22:26 12.8 °C 7.7 °C 1023.2 hPa SSW 20.4 km/h 20.4 km/h 71 % 0.0 mm 0.0 W/m2 CLR
22:31 12.8 °C 7.7 °C 1023.2 hPa South 18.5 km/h 18.5 km/h 71 % 0.0 mm 0.0 W/m2 CLR
22:36 12.8 °C 7.7 °C 1023.2 hPa SSW 24.1 km/h 24.1 km/h 71 % 0.0 mm 0.0 W/m2 CLR
22:41 12.2 °C 7.3 °C 1023.2 hPa SSW 22.2 km/h 22.2 km/h 72 % 0.0 mm 0.0 W/m2 CLR
22:46 12.2 °C 7.3 °C 1023.2 hPa SSW 20.4 km/h 20.4 km/h 72 % 0.0 mm 0.0 W/m2 CLR
22:51 12.2 °C 7.5 °C 1022.9 hPa SSE 18.5 km/h 18.5 km/h 73 % 0.0 mm 0.0 W/m2 CLR
22:56 12.2 °C 7.5 °C 1022.9 hPa South 14.8 km/h 14.8 km/h 73 % 0.0 mm 0.0 W/m2 CLR
23:01 12.2 °C 7.5 °C 1022.9 hPa South 13.0 km/h 13.0 km/h 73 % 0.0 mm 0.0 W/m2 CLR
23:06 12.2 °C 7.5 °C 1022.9 hPa SSE 13.0 km/h 13.0 km/h 73 % 0.0 mm 0.0 W/m2 CLR
23:11 12.2 °C 7.5 °C 1022.9 hPa South 13.0 km/h 13.0 km/h 73 % 0.0 mm 0.0 W/m2 CLR
23:16 12.2 °C 7.5 °C 1022.9 hPa SSE 9.7 km/h 9.7 km/h 73 % 0.0 mm 0.0 W/m2 CLR
23:21 12.2 °C 7.5 °C 1022.9 hPa South 11.1 km/h 11.1 km/h 73 % 0.0 mm 0.0 W/m2 CLR
23:26 11.7 °C 7.0 °C 1022.9 hPa SSE 13.0 km/h 13.0 km/h 73 % 0.0 mm 0.0 W/m2 CLR
23:31 11.7 °C 7.0 °C 1022.9 hPa SSW 7.4 km/h 7.4 km/h 73 % 0.0 mm 0.0 W/m2 CLR
23:36 12.2 °C 7.7 °C 1022.9 hPa South 16.7 km/h 16.7 km/h 74 % 0.0 mm 0.0 W/m2 CLR
23:41 11.7 °C 7.2 °C 1022.6 hPa South 8.0 km/h 8.0 km/h 74 % 0.0 mm 0.0 W/m2 CLR
23:46 12.2 °C 7.7 °C 1022.6 hPa SSE 5.6 km/h 5.6 km/h 74 % 0.0 mm 0.0 W/m2 CLR
23:51 12.2 °C 7.7 °C 1022.6 hPa SSE 13.0 km/h 13.0 km/h 74 % 0.0 mm 0.0 W/m2 CLR
23:56 12.8 °C 8.1 °C 1022.6 hPa SSW 7.4 km/h 7.4 km/h 73 % 0.0 mm 0.0 W/m2 CLR
Lo Temps de Massalio
Compliments of Weather Underground - 1.25 mb